Terminal Aerodrome Forecast
Issued by NWS

Home | Current Version | Previous Version | Text Only | Print | Product List | Glossary On
Versions: 1 2 3 4 5 6 7 8 9 10 11 12 13 14 15 16 17 18
716
FTUS43 KPAH 072323
TAFCGI
TAF
KCGI 072323Z 0800/0824 27008KT P6SM SCT050 BKN100
     FM081200 30011KT P6SM OVC025
     FM081600 31014G22KT 6SM -SHSN OVC040 PROB30 0818/0824 5SM -SHSN
      OVC025=

USA.gov is the U.S. government's official web portal to all federal, state and local government web resources and services.